Time;durP1;ratioP1;P1;durP2;ratioP2;P2;SDS_P1;SDS_P2;PMS_P1;PMS_P2;Temp;Humidity;BMP_temperature;BMP_pressure;BME280_temperature;BME280_humidity;BME280_pressure;Samples;Min_cycle;Max_cycle;Signal;HPM_P1;HPM_P2
2022/06/25 00:01:13;;;;;;;3.95;2.75;;;18.30;99.90;;;;;;5044691;28;20262;-86
2022/06/25 00:03:40;;;;;;;2.70;2.45;;;18.30;99.90;;;;;;5060390;28;20160;-85
2022/06/25 00:06:06;;;;;;;3.42;2.33;;;18.30;99.90;;;;;;5059650;28;20206;-86
2022/06/25 00:08:34;;;;;;;4.97;2.60;;;18.30;99.90;;;;;;5059824;28;20187;-86
2022/06/25 00:11:00;;;;;;;2.58;2.38;;;18.30;99.90;;;;;;5059869;28;20199;-85
2022/06/25 00:13:26;;;;;;;3.17;2.50;;;18.30;99.90;;;;;;5060103;28;20186;-86
2022/06/25 00:15:52;;;;;;;5.32;3.00;;;18.30;99.90;;;;;;5059747;28;20195;-85
2022/06/25 00:18:18;;;;;;;3.28;2.50;;;18.30;99.90;;;;;;5045154;28;20188;-86
2022/06/25 00:20:45;;;;;;;2.33;2.20;;;18.30;99.90;;;;;;5061236;28;20233;-86
2022/06/25 00:23:11;;;;;;;4.03;2.47;;;18.30;99.90;;;;;;5043941;28;20175;-85
2022/06/25 00:25:37;;;;;;;2.90;2.45;;;18.30;99.90;;;;;;5044543;28;20195;-85
2022/06/25 00:28:03;;;;;;;4.72;2.45;;;18.20;99.90;;;;;;5059068;28;20179;-85
2022/06/25 00:30:31;;;;;;;3.50;2.75;;;18.20;99.90;;;;;;5058472;28;20249;-85
2022/06/25 00:32:57;;;;;;;3.22;2.70;;;18.10;99.90;;;;;;5058809;28;20175;-85
2022/06/25 00:35:24;;;;;;;3.75;2.80;;;18.10;99.90;;;;;;5058262;28;20290;-85
2022/06/25 00:37:49;;;;;;;3.28;2.65;;;18.10;99.90;;;;;;5058516;28;20230;-85
2022/06/25 00:40:15;;;;;;;2.65;2.45;;;18.00;99.90;;;;;;5058370;28;20247;-85
2022/06/25 00:42:43;;;;;;;4.47;2.58;;;18.00;99.90;;;;;;5057907;28;20174;-85
2022/06/25 00:45:09;;;;;;;6.13;2.90;;;18.00;99.90;;;;;;5041713;28;20203;-85
2022/06/25 00:47:34;;;;;;;3.38;2.60;;;17.90;99.90;;;;;;5058059;28;20237;-85
2022/06/25 00:50:00;;;;;;;3.25;2.70;;;18.00;99.90;;;;;;5042665;28;20179;-85
2022/06/25 00:52:27;;;;;;;2.90;2.60;;;17.90;99.90;;;;;;5041205;28;20206;-85
2022/06/25 00:55:05;;;;;;;4.40;3.10;;;17.90;99.90;;;;;;5057888;28;20175;-85
2022/06/25 00:57:33;;;;;;;2.75;2.55;;;18.00;99.90;;;;;;5054556;28;20214;-85
2022/06/25 01:00:05;;;;;;;4.65;2.72;;;18.00;99.90;;;;;;5053956;28;20234;-85
2022/06/25 01:02:31;;;;;;;3.08;2.42;;;17.90;99.90;;;;;;5055140;28;20209;-85
2022/06/25 01:04:57;;;;;;;4.22;2.60;;;17.80;99.90;;;;;;5055022;28;20270;-84
2022/06/25 01:07:23;;;;;;;4.82;2.65;;;17.80;99.90;;;;;;5056209;28;20179;-85
2022/06/25 01:09:49;;;;;;;3.72;2.60;;;17.80;99.90;;;;;;5056465;28;20179;-85
2022/06/25 01:12:15;;;;;;;7.35;3.00;;;17.70;99.90;;;;;;5056945;28;20266;-85
2022/06/25 01:14:41;;;;;;;4.65;2.60;;;17.60;99.90;;;;;;5057439;28;20193;-86
2022/06/25 01:17:08;;;;;;;3.70;3.03;;;17.60;99.90;;;;;;5041299;28;20259;-86
2022/06/25 01:19:35;;;;;;;4.25;2.63;;;17.60;99.90;;;;;;5057108;28;20182;-86
2022/06/25 01:22:05;;;;;;;3.30;2.70;;;17.70;99.90;;;;;;5041180;28;20175;-86
2022/06/25 01:24:31;;;;;;;5.47;2.60;;;17.70;99.90;;;;;;5056409;28;20175;-86
2022/06/25 01:26:57;;;;;;;4.50;2.90;;;17.60;99.90;;;;;;5057124;28;20556;-86
2022/06/25 01:29:23;;;;;;;3.70;2.38;;;17.60;99.90;;;;;;5056735;28;20209;-86
2022/06/25 01:31:49;;;;;;;5.28;3.08;;;17.60;99.90;;;;;;5057029;28;20556;-85
2022/06/25 01:34:15;;;;;;;3.30;3.00;;;17.60;99.90;;;;;;5057137;28;20179;-85
2022/06/25 01:36:41;;;;;;;4.68;3.00;;;17.50;99.90;;;;;;5040806;28;20231;-85
2022/06/25 01:39:06;;;;;;;3.30;3.00;;;17.50;99.90;;;;;;5056850;28;20179;-85
2022/06/25 01:41:32;;;;;;;3.15;2.85;;;17.50;99.90;;;;;;5059837;28;20231;-86
2022/06/25 01:43:58;;;;;;;4.38;3.03;;;17.50;99.90;;;;;;5059281;28;20233;-85
2022/06/25 01:46:24;;;;;;;4.53;3.03;;;17.50;99.90;;;;;;5058061;28;20206;-86
2022/06/25 01:48:49;;;;;;;5.35;3.20;;;17.50;99.90;;;;;;5041329;28;20183;-86
2022/06/25 01:51:17;;;;;;;4.28;3.13;;;17.40;99.90;;;;;;5057003;28;20186;-86
2022/06/25 01:53:43;;;;;;;4.53;3.10;;;17.40;99.90;;;;;;5058321;28;20274;-86
2022/06/25 01:56:09;;;;;;;6.45;3.30;;;17.40;99.90;;;;;;5058430;28;20320;-85
2022/06/25 01:58:36;;;;;;;3.85;3.13;;;17.40;99.90;;;;;;5059403;28;20191;-86
2022/06/25 02:01:03;;;;;;;4.45;3.33;;;17.30;99.90;;;;;;5043582;28;20176;-86
2022/06/25 02:03:29;;;;;;;4.85;3.42;;;17.30;99.90;;;;;;5054332;28;20186;-85
2022/06/25 02:05:58;;;;;;;3.50;3.20;;;17.30;99.90;;;;;;5037398;28;20191;-86
2022/06/25 02:08:33;;;;;;;4.88;3.58;;;17.30;99.90;;;;;;5052420;28;20186;-86
2022/06/25 02:11:00;;;;;;;3.85;3.17;;;17.30;99.90;;;;;;5035319;28;20639;-86
2022/06/25 02:13:26;;;;;;;3.55;3.10;;;17.20;99.90;;;;;;5051638;28;20241;-87
2022/06/25 02:15:53;;;;;;;4.30;3.70;;;17.20;99.90;;;;;;5051744;28;20211;-86
2022/06/25 02:18:19;;;;;;;4.05;3.13;;;17.30;99.90;;;;;;5051579;28;20210;-86
2022/06/25 02:20:45;;;;;;;4.50;3.05;;;17.20;99.90;;;;;;5053803;28;20175;-86
2022/06/25 02:23:13;;;;;;;3.70;3.40;;;17.20;99.90;;;;;;5054114;28;20178;-86
2022/06/25 02:25:39;;;;;;;7.15;3.70;;;17.20;99.90;;;;;;5053700;28;20282;-87
2022/06/25 02:28:05;;;;;;;5.18;3.55;;;17.10;99.90;;;;;;5051880;28;20186;-87
2022/06/25 02:30:31;;;;;;;6.03;3.58;;;17.10;99.90;;;;;;5039381;28;20197;-86
2022/06/25 02:32:57;;;;;;;5.45;3.22;;;17.10;99.90;;;;;;5057860;28;20169;-85
2022/06/25 02:35:23;;;;;;;5.03;3.60;;;17.10;99.90;;;;;;5044314;28;20211;-85
2022/06/25 02:37:49;;;;;;;4.07;3.15;;;17.10;99.90;;;;;;5053678;28;20703;-86
2022/06/25 02:40:14;;;;;;;3.40;3.10;;;17.10;99.90;;;;;;5053502;28;20175;-86
2022/06/25 02:42:41;;;;;;;3.55;3.05;;;17.20;99.90;;;;;;5053255;28;20174;-86
2022/06/25 02:45:08;;;;;;;3.40;3.10;;;17.10;99.90;;;;;;5052555;28;20174;-86
2022/06/25 02:47:35;;;;;;;3.72;3.08;;;17.10;99.90;;;;;;5053454;28;20194;-86
2022/06/25 02:50:01;;;;;;;3.33;3.03;;;17.10;99.90;;;;;;5053372;28;20210;-86
2022/06/25 02:52:27;;;;;;;4.28;3.65;;;17.10;99.90;;;;;;5056125;28;20182;-86
2022/06/25 02:54:53;;;;;;;5.40;3.25;;;17.10;99.90;;;;;;5053805;28;20229;-86
2022/06/25 03:00:07;;;;;;;4.60;3.72;;;17.10;99.90;;;;;;5040437;28;20182;-85
2022/06/25 03:02:33;;;;;;;4.75;3.15;;;17.10;99.90;;;;;;5055722;28;20198;-85
2022/06/25 03:05:00;;;;;;;5.70;3.55;;;17.10;99.90;;;;;;5037447;28;20178;-86
2022/06/25 03:07:26;;;;;;;4.07;3.13;;;17.10;99.90;;;;;;5034951;28;20274;-88
2022/06/25 03:09:52;;;;;;;3.72;3.25;;;17.20;99.90;;;;;;5052703;28;20194;-88
2022/06/25 03:12:18;;;;;;;5.40;3.47;;;17.20;99.90;;;;;;5051200;28;20179;-87
2022/06/25 03:14:43;;;;;;;3.60;2.97;;;17.20;99.90;;;;;;5051008;28;20193;-87
2022/06/25 03:17:09;;;;;;;6.18;3.72;;;17.10;99.90;;;;;;5054359;28;20210;-88
2022/06/25 03:19:35;;;;;;;3.55;3.10;;;17.10;99.90;;;;;;5054875;28;20179;-88
2022/06/25 03:22:05;;;;;;;3.22;2.92;;;17.00;99.90;;;;;;5055529;28;20270;-88
2022/06/25 03:24:31;;;;;;;5.22;3.25;;;17.00;99.90;;;;;;5056307;28;20172;-89
2022/06/25 03:26:57;;;;;;;5.32;3.17;;;16.90;99.90;;;;;;5038636;28;20202;-89
2022/06/25 03:29:22;;;;;;;3.53;3.10;;;16.90;99.90;;;;;;5055753;28;20183;-88
2022/06/25 03:31:48;;;;;;;4.05;3.03;;;16.90;99.90;;;;;;5055329;28;20629;-89
2022/06/25 03:34:14;;;;;;;6.32;3.60;;;16.80;99.90;;;;;;5055010;28;20221;-89
2022/06/25 03:36:40;;;;;;;3.42;2.95;;;16.80;99.90;;;;;;5055108;28;20207;-89
2022/06/25 03:39:05;;;;;;;3.97;3.58;;;16.70;99.90;;;;;;5055901;28;20203;-89
2022/06/25 03:41:35;;;;;;;4.85;3.20;;;16.70;99.90;;;;;;5054920;28;20272;-88
2022/06/25 03:44:06;;;;;;;3.80;3.50;;;16.70;99.90;;;;;;5039878;28;20235;-88
2022/06/25 03:46:33;;;;;;;6.38;3.42;;;16.60;99.90;;;;;;5055091;28;20340;-89
2022/06/25 03:49:00;;;;;;;3.65;3.33;;;16.60;99.90;;;;;;5054686;28;20188;-87
2022/06/25 03:51:26;;;;;;;6.95;3.58;;;16.70;99.90;;;;;;5054228;28;20547;-86
2022/06/25 03:53:52;;;;;;;4.90;3.38;;;16.70;99.90;;;;;;5054269;28;20206;-86
2022/06/25 03:56:18;;;;;;;4.47;3.28;;;16.70;99.90;;;;;;5054537;28;20207;-87
2022/06/25 03:58:44;;;;;;;6.65;3.47;;;16.80;99.90;;;;;;5064425;28;20194;-86
2022/06/25 04:01:10;;;;;;;3.45;3.15;;;16.80;99.90;;;;;;5060525;28;20183;-86
2022/06/25 04:03:36;;;;;;;3.40;3.10;;;16.80;99.90;;;;;;5054562;28;20175;-86
2022/06/25 04:06:02;;;;;;;5.63;3.10;;;16.90;99.90;;;;;;5054369;28;20282;-86
2022/06/25 04:08:28;;;;;;;6.03;3.20;;;16.90;99.90;;;;;;5038689;28;20204;-86
2022/06/25 04:10:54;;;;;;;4.43;3.00;;;17.00;99.90;;;;;;5038915;28;20264;-86
2022/06/25 04:13:20;;;;;;;3.40;3.10;;;17.00;99.90;;;;;;5053935;28;20562;-86
2022/06/25 04:15:46;;;;;;;4.28;3.53;;;17.00;99.90;;;;;;5053725;28;20191;-86
2022/06/25 04:18:12;;;;;;;3.80;3.08;;;17.10;99.90;;;;;;5053997;28;20702;-86
2022/06/25 04:20:38;;;;;;;6.05;3.17;;;17.10;99.90;;;;;;5053573;28;20179;-86
2022/06/25 04:23:04;;;;;;;3.80;2.80;;;17.10;99.90;;;;;;5038392;28;20185;-86
2022/06/25 04:25:29;;;;;;;4.82;3.20;;;17.10;99.90;;;;;;5053819;28;20238;-86
2022/06/25 04:30:39;;;;;;;3.33;3.00;;;17.10;99.90;;;;;;5038495;28;20202;-88
2022/06/25 04:33:05;;;;;;;3.53;2.85;;;17.20;99.90;;;;;;5053958;28;20191;-88
2022/06/25 04:35:31;;;;;;;6.45;2.90;;;17.20;99.90;;;;;;5053293;28;20199;-88
2022/06/25 04:37:56;;;;;;;4.22;3.22;;;17.30;99.90;;;;;;5053185;28;20198;-88
2022/06/25 04:40:22;;;;;;;5.80;3.13;;;17.30;99.90;;;;;;5058013;28;20558;-88
2022/06/25 04:42:48;;;;;;;6.03;3.15;;;17.40;99.90;;;;;;5060374;28;20639;-87
2022/06/25 04:45:14;;;;;;;3.28;2.85;;;17.40;99.90;;;;;;5041460;28;20195;-88
2022/06/25 04:47:40;;;;;;;3.35;3.00;;;17.50;99.90;;;;;;5054820;28;20182;-88
2022/06/25 04:50:06;;;;;;;5.47;2.95;;;17.50;99.90;;;;;;5037593;28;20662;-88
2022/06/25 04:52:32;;;;;;;3.30;3.00;;;17.60;99.90;;;;;;5053772;28;20181;-88
2022/06/25 04:54:58;;;;;;;7.35;3.20;;;17.60;99.90;;;;;;5052965;28;20179;-88
2022/06/25 04:57:23;;;;;;;5.35;3.00;;;17.70;99.90;;;;;;5052875;28;20253;-88
2022/06/25 04:59:49;;;;;;;7.75;3.30;;;17.80;99.90;;;;;;5053369;28;20171;-88
2022/06/25 05:02:15;;;;;;;2.72;2.53;;;17.80;99.90;;;;;;5052939;28;20186;-89
2022/06/25 05:04:41;;;;;;;3.28;2.80;;;17.90;99.90;;;;;;5037514;28;20171;-89
2022/06/25 05:07:06;;;;;;;4.63;2.97;;;17.90;99.90;;;;;;5052978;28;20211;-88
2022/06/25 05:09:32;;;;;;;3.58;3.10;;;17.90;99.90;;;;;;5052761;28;20183;-89
2022/06/25 05:11:58;;;;;;;4.22;3.03;;;18.00;99.90;;;;;;5037570;28;20187;-88
2022/06/25 05:14:24;;;;;;;5.60;3.28;;;18.10;99.90;;;;;;5053462;28;20187;-88
2022/06/25 05:16:50;;;;;;;3.83;3.05;;;18.20;99.90;;;;;;5037474;28;20202;-89
2022/06/25 05:19:15;;;;;;;4.32;3.20;;;18.20;99.90;;;;;;5036543;28;20167;-88
2022/06/25 05:21:41;;;;;;;3.28;2.90;;;18.30;99.90;;;;;;5037966;28;20643;-88
2022/06/25 05:24:07;;;;;;;4.97;3.17;;;18.30;99.90;;;;;;5053299;28;20187;-88
2022/06/25 05:26:33;;;;;;;6.10;3.00;;;18.40;99.90;;;;;;5052983;28;20241;-89
2022/06/25 05:28:59;;;;;;;3.22;2.92;;;18.40;99.90;;;;;;5052976;28;20179;-89
2022/06/25 05:31:25;;;;;;;4.57;3.00;;;18.50;99.90;;;;;;5052363;28;20241;-89
2022/06/25 05:33:50;;;;;;;4.38;2.80;;;18.60;99.90;;;;;;5051216;28;20179;-89
2022/06/25 05:36:17;;;;;;;4.20;2.53;;;18.70;99.90;;;;;;5051103;28;20249;-89
2022/06/25 05:38:43;;;;;;;4.38;3.00;;;18.80;99.90;;;;;;5051135;28;20692;-89
2022/06/25 05:41:09;;;;;;;3.03;2.70;;;18.80;99.90;;;;;;5051225;28;20218;-88
2022/06/25 05:43:36;;;;;;;3.55;2.80;;;18.90;99.90;;;;;;5051426;28;20270;-87
2022/06/25 05:46:04;;;;;;;2.65;2.42;;;19.00;99.90;;;;;;5051370;28;20239;-87
2022/06/25 05:48:30;;;;;;;3.05;2.72;;;19.10;99.90;;;;;;5051663;28;20175;-87
2022/06/25 05:50:56;;;;;;;4.57;2.80;;;19.20;99.90;;;;;;5050845;28;20175;-87
2022/06/25 05:53:23;;;;;;;4.53;2.90;;;19.20;99.90;;;;;;5050811;28;20266;-87
2022/06/25 05:55:49;;;;;;;4.47;2.63;;;19.30;99.90;;;;;;5050904;28;20261;-87
2022/06/25 05:58:15;;;;;;;3.25;2.72;;;19.40;99.90;;;;;;5053031;28;20211;-87
2022/06/25 06:00:41;;;;;;;3.60;2.83;;;19.50;99.90;;;;;;5041939;28;20659;-88
2022/06/25 06:03:06;;;;;;;3.03;2.60;;;19.60;99.90;;;;;;5052231;28;20175;-87
2022/06/25 06:05:33;;;;;;;5.75;3.10;;;19.60;99.90;;;;;;5052072;28;20226;-87
2022/06/25 06:07:59;;;;;;;3.75;2.90;;;19.70;99.90;;;;;;5037397;28;20251;-88
2022/06/25 06:10:25;;;;;;;4.72;2.70;;;19.70;99.90;;;;;;5056313;28;20648;-88
2022/06/25 06:12:51;;;;;;;3.65;3.22;;;19.80;99.90;;;;;;5052417;28;20168;-88
2022/06/25 06:15:16;;;;;;;3.33;2.92;;;19.80;99.90;;;;;;5050835;28;20203;-88
2022/06/25 06:17:42;;;;;;;3.53;2.72;;;19.90;99.90;;;;;;5050437;28;20205;-88
2022/06/25 06:20:08;;;;;;;3.45;2.67;;;19.90;99.90;;;;;;5034169;28;20167;-88
2022/06/25 06:22:35;;;;;;;3.63;2.83;;;20.00;99.90;;;;;;5035072;28;20175;-88
2022/06/25 06:25:01;;;;;;;3.67;2.70;;;20.10;99.90;;;;;;5035056;28;20543;-87
2022/06/25 06:27:27;;;;;;;3.10;2.80;;;20.10;99.90;;;;;;5050710;28;20182;-88
2022/06/25 06:29:53;;;;;;;4.35;3.15;;;20.10;99.90;;;;;;5034204;28;20187;-88
2022/06/25 06:32:19;;;;;;;3.70;2.95;;;20.20;99.90;;;;;;5050813;28;20174;-88
2022/06/25 06:34:47;;;;;;;3.35;2.60;;;20.20;99.90;;;;;;5033744;28;20612;-88
2022/06/25 06:37:13;;;;;;;4.22;2.90;;;20.30;99.90;;;;;;5034784;28;20750;-87
2022/06/25 06:39:39;;;;;;;7.28;2.90;;;20.40;99.90;;;;;;5049754;28;20187;-87
2022/06/25 06:42:05;;;;;;;5.50;2.90;;;20.40;99.90;;;;;;5050217;28;20182;-87
2022/06/25 06:44:30;;;;;;;4.45;2.85;;;20.50;99.90;;;;;;5033410;28;20510;-87
2022/06/25 06:46:56;;;;;;;4.28;2.63;;;20.60;99.90;;;;;;5049840;28;20234;-87
2022/06/25 06:49:22;;;;;;;4.85;2.72;;;20.60;99.90;;;;;;5050611;28;20186;-86
2022/06/25 06:51:47;;;;;;;3.20;2.60;;;20.70;99.90;;;;;;5039300;28;20544;-87
2022/06/25 06:54:13;;;;;;;4.38;2.97;;;20.70;99.90;;;;;;5054742;28;20610;-89
2022/06/25 06:56:39;;;;;;;5.18;3.13;;;20.80;99.90;;;;;;5041757;28;20270;-89
2022/06/25 06:59:05;;;;;;;3.55;2.60;;;20.80;99.90;;;;;;5054492;28;20194;-89
2022/06/25 07:01:31;;;;;;;5.07;2.78;;;21.00;99.90;;;;;;5054094;28;20179;-88
2022/06/25 07:03:56;;;;;;;3.70;2.83;;;21.00;99.90;;;;;;5038184;28;20698;-88
2022/06/25 07:06:22;;;;;;;3.83;2.78;;;21.00;99.90;;;;;;5053708;28;20203;-87
2022/06/25 07:08:48;;;;;;;6.10;3.17;;;21.00;99.90;;;;;;5037912;28;20176;-87
2022/06/25 07:11:29;;;;;;;6.50;3.35;;;21.10;99.90;;;;;;5056595;28;20686;-85
2022/06/25 07:14:00;;;;;;;5.82;3.00;;;21.10;99.90;;;;;;5055268;28;20262;-85
2022/06/25 07:16:28;;;;;;;4.60;3.38;;;21.20;99.90;;;;;;5054414;28;20238;-85
2022/06/25 07:18:55;;;;;;;3.42;2.97;;;21.30;99.90;;;;;;5054892;28;20314;-85
2022/06/25 07:21:22;;;;;;;5.70;3.67;;;21.30;99.90;;;;;;5056107;28;20175;-85
2022/06/25 07:23:48;;;;;;;4.30;2.95;;;21.40;99.90;;;;;;5039773;28;20195;-85
2022/06/25 07:26:14;;;;;;;4.47;3.00;;;21.40;99.90;;;;;;5055422;28;20195;-80
2022/06/25 07:28:39;;;;;;;5.22;3.20;;;21.40;99.90;;;;;;5054874;28;20648;-80
2022/06/25 07:31:05;;;;;;;6.65;3.53;;;21.40;99.90;;;;;;5053924;28;20226;-80
2022/06/25 07:33:31;;;;;;;7.72;3.45;;;21.50;99.90;;;;;;5056367;28;20533;-82
2022/06/25 07:35:58;;;;;;;6.78;3.17;;;21.50;99.90;;;;;;5039024;28;20249;-82
2022/06/25 07:38:24;;;;;;;5.65;3.22;;;21.40;99.90;;;;;;5056031;28;20247;-82
2022/06/25 07:40:51;;;;;;;5.80;3.58;;;21.40;99.90;;;;;;5039492;28;20594;-83
2022/06/25 07:43:17;;;;;;;4.30;3.47;;;21.50;99.90;;;;;;5056648;28;20235;-80
2022/06/25 07:45:43;;;;;;;5.53;3.42;;;21.60;99.90;;;;;;5038305;28;20191;-81
2022/06/25 07:48:09;;;;;;;5.60;3.25;;;21.60;99.90;;;;;;5037559;28;20179;-81
2022/06/25 07:53:19;;;;;;;6.53;3.63;;;21.50;99.90;;;;;;5038940;28;20166;-80
2022/06/25 07:55:45;;;;;;;5.30;2.60;;;21.40;99.90;;;;;;5054960;28;20199;-80
2022/06/25 07:58:12;;;;;;;4.95;3.22;;;21.50;99.90;;;;;;5039994;28;20222;-80
2022/06/25 08:00:38;;;;;;;5.65;3.15;;;21.60;99.90;;;;;;5054380;28;20254;-80
2022/06/25 08:03:05;;;;;;;5.00;2.95;;;21.70;99.90;;;;;;5053390;28;20217;-79
2022/06/25 08:05:33;;;;;;;4.43;3.33;;;22.00;99.90;;;;;;5054530;28;20222;-79
2022/06/25 08:07:59;;;;;;;3.83;3.20;;;22.30;99.90;;;;;;5037439;28;20187;-79
2022/06/25 08:10:25;;;;;;;5.47;3.00;;;22.60;99.90;;;;;;5038505;28;20234;-79
2022/06/25 08:12:51;;;;;;;7.38;3.20;;;22.80;99.90;;;;;;5038600;28;20198;-79
2022/06/25 08:15:19;;;;;;;5.00;2.95;;;23.00;99.90;;;;;;5038545;28;20726;-79
2022/06/25 08:17:46;;;;;;;3.85;2.97;;;23.10;99.90;;;;;;5037984;28;20205;-79
2022/06/25 08:20:12;;;;;;;6.35;3.30;;;23.00;99.90;;;;;;5054930;28;20241;-79
2022/06/25 08:22:38;;;;;;;5.63;3.33;;;22.70;99.90;;;;;;5039344;28;20243;-79
2022/06/25 08:25:07;;;;;;;3.13;2.53;;;22.60;99.90;;;;;;5053359;28;20182;-79
2022/06/25 08:27:33;;;;;;;4.13;2.97;;;22.50;99.90;;;;;;5037141;28;20159;-79
2022/06/25 08:29:59;;;;;;;6.93;2.40;;;22.40;99.90;;;;;;5052919;28;20557;-79
2022/06/25 08:32:25;;;;;;;4.82;2.65;;;22.40;99.90;;;;;;5037077;28;20184;-79
2022/06/25 08:34:51;;;;;;;3.10;2.50;;;22.60;99.90;;;;;;5052720;28;20611;-79
2022/06/25 08:37:17;;;;;;;4.28;2.42;;;22.70;99.90;;;;;;5037880;28;20625;-79
2022/06/25 08:39:43;;;;;;;4.85;2.40;;;22.70;99.90;;;;;;5036643;28;20175;-79
2022/06/25 08:42:08;;;;;;;3.05;2.42;;;22.50;99.90;;;;;;5036691;28;20182;-79
2022/06/25 08:44:34;;;;;;;2.53;2.33;;;22.30;99.90;;;;;;5053237;28;20808;-79
2022/06/25 08:47:00;;;;;;;4.68;2.65;;;22.20;99.90;;;;;;5035839;28;20213;-79
2022/06/25 08:49:26;;;;;;;3.65;2.20;;;22.20;99.90;;;;;;5037495;28;20238;-79
2022/06/25 08:51:54;;;;;;;3.58;2.10;;;22.30;99.90;;;;;;5052684;28;20179;-78
2022/06/25 08:54:20;;;;;;;5.97;2.35;;;22.40;99.90;;;;;;5038238;28;20163;-78
2022/06/25 08:56:46;;;;;;;5.45;2.17;;;22.60;99.90;;;;;;5037623;28;20214;-78
2022/06/25 08:59:12;;;;;;;4.63;2.40;;;22.70;99.90;;;;;;5036073;28;20194;-78
2022/06/25 09:01:38;;;;;;;3.20;2.13;;;22.90;99.90;;;;;;5035991;28;20201;-78
2022/06/25 09:04:05;;;;;;;2.85;1.95;;;23.10;99.90;;;;;;5036227;28;20175;-78
2022/06/25 09:06:30;;;;;;;4.82;1.90;;;23.20;99.90;;;;;;5036016;28;20205;-78
2022/06/25 09:09:12;;;;;;;2.40;1.95;;;23.30;99.90;;;;;;5036070;28;20205;-79
2022/06/25 09:12:05;;;;;;;5.63;1.90;;;23.70;99.90;;;;;;5051246;28;20186;-78
2022/06/25 09:14:32;;;;;;;4.15;2.20;;;24.20;99.90;;;;;;5055859;28;20175;-83
2022/06/25 09:17:08;;;;;;;3.13;2.10;;;24.30;99.90;;;;;;5053265;28;20209;-85
2022/06/25 09:19:37;;;;;;;2.45;1.90;;;24.30;99.90;;;;;;5054002;28;20167;-84
2022/06/25 09:22:12;;;;;;;4.57;2.00;;;24.00;99.90;;;;;;5054257;28;20178;-81
2022/06/25 09:24:48;;;;;;;3.92;2.22;;;24.10;99.90;;;;;;5037111;28;20300;-80
2022/06/25 09:27:19;;;;;;;4.22;2.08;;;24.30;99.90;;;;;;5053409;28;20236;-82
2022/06/25 09:29:48;;;;;;;5.57;2.15;;;24.30;99.90;;;;;;5059951;28;20175;-82
2022/06/25 09:32:15;;;;;;;4.43;2.22;;;24.40;99.90;;;;;;5040529;28;20182;-82
2022/06/25 09:34:42;;;;;;;5.47;2.10;;;24.40;99.90;;;;;;5057161;28;20179;-82
2022/06/25 09:37:25;;;;;;;3.15;1.92;;;24.40;99.90;;;;;;5056403;28;20207;-81
2022/06/25 09:39:54;;;;;;;5.05;2.25;;;24.20;99.90;;;;;;5038671;28;20254;-81
2022/06/25 09:42:21;;;;;;;2.75;1.80;;;24.20;99.90;;;;;;5039621;28;20174;-81
2022/06/25 09:44:48;;;;;;;3.58;2.10;;;24.50;99.90;;;;;;5037526;28;20240;-81
2022/06/25 09:47:14;;;;;;;5.43;1.77;;;24.70;99.90;;;;;;5037007;28;20688;-81
2022/06/25 09:49:40;;;;;;;4.30;1.80;;;25.20;99.90;;;;;;5036318;28;20187;-81
2022/06/25 09:52:06;;;;;;;2.05;1.75;;;25.50;99.90;;;;;;5053475;28;20183;-81
2022/06/25 09:54:32;;;;;;;3.10;1.75;;;25.70;99.90;;;;;;5053936;28;20167;-81
2022/06/25 09:57:01;;;;;;;2.53;1.85;;;26.00;99.90;;;;;;5038121;28;20253;-80
2022/06/25 09:59:33;;;;;;;4.63;2.13;;;26.20;99.90;;;;;;5035546;28;20187;-81
2022/06/25 10:02:03;;;;;;;4.13;1.90;;;26.30;99.90;;;;;;5038365;28;20156;-81
2022/06/25 10:04:30;;;;;;;4.13;1.80;;;26.30;99.90;;;;;;5052457;28;20578;-81
2022/06/25 10:06:59;;;;;;;2.88;1.83;;;26.50;99.90;;;;;;5036517;28;20196;-81
2022/06/25 10:09:25;;;;;;;3.05;1.80;;;26.50;99.90;;;;;;5052069;28;20237;-81
2022/06/25 10:11:52;;;;;;;3.85;1.80;;;25.90;99.90;;;;;;5037070;28;20177;-81
2022/06/25 10:14:18;;;;;;;3.65;1.60;;;25.60;99.90;;;;;;5052225;28;20179;-81
2022/06/25 10:16:44;;;;;;;4.93;2.38;;;25.50;99.90;;;;;;5052034;28;20214;-81
2022/06/25 10:19:12;;;;;;;4.22;1.90;;;25.10;99.90;;;;;;5036159;28;20175;-81
2022/06/25 10:21:37;;;;;;;3.92;1.70;;;24.60;99.90;;;;;;5038017;28;20626;-81
2022/06/25 10:24:05;;;;;;;3.88;2.03;;;24.50;99.90;;;;;;5052089;28;20179;-81
2022/06/25 10:26:33;;;;;;;2.75;1.77;;;24.30;99.90;;;;;;5051477;28;20711;-81
2022/06/25 10:29:24;;;;;;;5.18;1.85;;;24.20;99.90;;;;;;5053793;28;20182;-81
2022/06/25 10:31:50;;;;;;;2.10;1.80;;;24.30;99.90;;;;;;5052695;28;20182;-81
2022/06/25 10:34:16;;;;;;;2.03;1.58;;;24.50;99.90;;;;;;5052989;28;20178;-81
2022/06/25 10:36:47;;;;;;;3.30;1.63;;;24.50;99.90;;;;;;5052742;28;20207;-81
2022/06/25 10:39:22;;;;;;;2.50;1.70;;;24.50;99.90;;;;;;5054261;28;20175;-81
2022/06/25 10:45:27;;;;;;;3.33;1.80;;;24.60;99.90;;;;;;5033053;28;20189;-81
2022/06/25 10:47:58;;;;;;;2.95;1.88;;;24.90;99.90;;;;;;5035846;28;20654;-81
2022/06/25 10:50:25;;;;;;;3.72;1.40;;;25.30;99.90;;;;;;5051016;28;20187;-81
2022/06/25 10:53:06;;;;;;;2.47;1.58;;;25.60;99.90;;;;;;5051780;28;20233;-81
2022/06/25 10:55:49;;;;;;;2.85;1.70;;;25.80;99.90;;;;;;5051060;28;20198;-81
2022/06/25 10:58:39;;;;;;;3.50;1.55;;;26.00;99.90;;;;;;5051274;28;20584;-82
2022/06/25 11:01:04;;;;;;;2.40;1.70;;;25.90;99.90;;;;;;5028746;28;20682;-81
2022/06/25 11:03:30;;;;;;;5.57;2.22;;;25.90;99.90;;;;;;5039771;28;20171;-81
2022/06/25 11:05:58;;;;;;;2.95;1.50;;;26.00;99.90;;;;;;5055864;28;20202;-81
2022/06/25 11:08:36;;;;;;;2.40;1.70;;;26.00;99.90;;;;;;5052928;28;20706;-81
2022/06/25 11:11:03;;;;;;;4.05;1.80;;;26.00;99.90;;;;;;5054289;28;20182;-82
2022/06/25 11:13:30;;;;;;;2.90;1.75;;;26.20;99.90;;;;;;5053665;28;20182;-81
2022/06/25 11:15:56;;;;;;;1.70;1.50;;;26.40;99.90;;;;;;5051167;28;20199;-80
2022/06/25 11:18:22;;;;;;;1.70;1.42;;;26.10;99.90;;;;;;5036546;28;20679;-80
2022/06/25 11:20:47;;;;;;;4.13;1.50;;;25.90;99.90;;;;;;5051535;28;20187;-82
2022/06/25 11:23:15;;;;;;;4.13;1.80;;;25.60;99.90;;;;;;5036120;28;20182;-81
2022/06/25 11:28:53;;;;;;;3.65;1.67;;;25.00;99.90;;;;;;5035930;28;20533;-81
2022/06/25 11:31:23;;;;;;;2.95;1.80;;;25.00;99.90;;;;;;5034402;28;20171;-81
2022/06/25 11:33:51;;;;;;;1.83;1.55;;;25.00;99.90;;;;;;5035629;28;20179;-80
2022/06/25 11:36:19;;;;;;;1.50;1.40;;;25.40;99.90;;;;;;5052200;28;20219;-80
2022/06/25 11:38:51;;;;;;;4.68;1.40;;;26.00;99.90;;;;;;5054591;28;20628;-81
2022/06/25 11:41:27;;;;;;;3.13;1.50;;;26.60;99.90;;;;;;5038339;28;20191;-80
2022/06/25 11:44:05;;;;;;;3.00;1.52;;;27.00;99.90;;;;;;5054235;28;20265;-80
2022/06/25 11:46:36;;;;;;;2.15;1.38;;;27.40;99.90;;;;;;5057039;28;20226;-81
2022/06/25 11:49:06;;;;;;;4.22;1.55;;;27.70;99.90;;;;;;5039403;28;20163;-81
2022/06/25 11:51:32;;;;;;;2.40;1.48;;;28.00;99.90;;;;;;5039541;28;20603;-81
2022/06/25 11:54:04;;;;;;;3.20;1.50;;;28.10;99.90;;;;;;5055394;28;20179;-81
2022/06/25 11:56:30;;;;;;;3.05;1.73;;;28.00;99.90;;;;;;5054525;28;20203;-80
2022/06/25 11:58:56;;;;;;;1.92;1.40;;;28.10;99.90;;;;;;5056191;28;20198;-80
2022/06/25 12:01:28;;;;;;;2.53;1.42;;;28.40;99.90;;;;;;5042037;28;20531;-80
2022/06/25 12:03:54;;;;;;;3.40;1.38;;;28.40;99.90;;;;;;5057497;28;20168;-80
2022/06/25 12:06:22;;;;;;;2.05;1.55;;;28.60;99.90;;;;;;5055082;28;20349;-80
2022/06/25 12:08:48;;;;;;;4.97;1.58;;;29.00;99.90;;;;;;5039120;28;20226;-81
2022/06/25 12:11:13;;;;;;;1.90;1.50;;;29.20;99.90;;;;;;5039227;28;20182;-81
2022/06/25 12:13:39;;;;;;;3.83;1.40;;;29.20;99.90;;;;;;5038787;28;20246;-81
2022/06/25 12:16:06;;;;;;;1.60;1.50;;;29.00;99.90;;;;;;5054126;28;20195;-81
2022/06/25 12:18:34;;;;;;;3.60;1.60;;;29.00;99.90;;;;;;5054036;28;20229;-81
2022/06/25 12:21:01;;;;;;;4.32;1.65;;;29.30;99.90;;;;;;5039180;28;20229;-81
2022/06/25 12:23:27;;;;;;;1.45;1.27;;;29.60;99.90;;;;;;5055244;28;20175;-81
2022/06/25 12:25:54;;;;;;;3.13;1.60;;;29.90;99.90;;;;;;5054359;28;20214;-81
2022/06/25 12:28:37;;;;;;;1.58;1.38;;;30.10;99.90;;;;;;5038579;28;20675;-81
2022/06/25 12:31:11;;;;;;;3.33;1.60;;;30.30;99.90;;;;;;5054990;28;20184;-81
2022/06/25 12:34:32;;;;;;;2.10;1.35;;;30.20;99.90;;;;;;5054501;28;20179;-86
2022/06/25 12:37:05;;;;;;;2.25;1.40;;;30.30;99.90;;;;;;5024092;28;20310;-85
2022/06/25 12:39:51;;;;;;;3.85;1.15;;;30.00;99.90;;;;;;5036216;28;20236;-82
2022/06/25 12:42:18;;;;;;;1.73;1.63;;;29.40;99.90;;;;;;5055153;28;20219;-82
2022/06/25 12:44:44;;;;;;;3.17;1.50;;;29.30;99.90;;;;;;5055647;28;20193;-83
2022/06/25 12:47:13;;;;;;;3.22;1.50;;;29.60;99.90;;;;;;5055378;28;20256;-82
2022/06/25 12:49:51;;;;;;;3.70;1.50;;;29.90;99.90;;;;;;5037948;28;20210;-82
2022/06/25 12:52:22;;;;;;;2.03;1.38;;;30.00;99.90;;;;;;5038582;28;20662;-82
2022/06/25 12:54:55;;;;;;;1.83;1.48;;;29.20;99.90;;;;;;5054537;28;20171;-82
2022/06/25 12:57:30;;;;;;;2.30;1.60;;;28.50;99.90;;;;;;5038365;28;20235;-81
2022/06/25 12:59:57;;;;;;;3.40;1.80;;;28.20;99.90;;;;;;5040283;28;20197;-82
2022/06/25 13:02:23;;;;;;;3.45;1.75;;;28.00;99.90;;;;;;5058133;28;20181;-82
2022/06/25 13:04:50;;;;;;;2.28;1.70;;;27.50;99.90;;;;;;5058618;28;20175;-82